Terminal Aerodrome Forecast
Issued by NWS Sioux Falls, SD

Home | Current Version | Previous Version | Text Only | Print | Product List | Glossary Off
Versions: 1 2 3 4 5 6 7 8 9 10 11 12 13 14 15 16 17 18 19

535
FTUS43 KFSD 170728 AAA
TAFFSD
TAF AMD
KFSD 170728Z 1707/1806 30006KT 6SM BR BKN008
      TEMPO 1707/1710 1SM BR OVC003
     FM171000 32009KT P6SM BKN010
     FM171400 31007KT P6SM SCT010
     FM171700 27005KT P6SM FEW150
     FM180000 21005KT P6SM FEW250=

USA.gov is the U.S. government's official web portal to all federal, state and local government web resources and services.